El Centro, CA

10:10 AM PST on January 20, 2017 (GMT -0800)
El Centro Naval Air Facility | | Change Station

Elev -43 ft 32.83 °N, 115.68 °W | Updated 14 minutes ago

Mostly Cloudy
Mostly Cloudy
61 °F
Feels Like 61 °F
N
4
Wind Variable Wind from SE

Today
High -- | Low -- °F
--% Chance of Precip.
Yesterday
High -- | Low -- °F
Precip. -- in
Pressure 29.79 in
Visibility 10.0 miles
Clouds Scattered Clouds 7000 ft
Mostly Cloudy 10000 ft
Mostly Cloudy 20000 ft
Dew Point 42 °F
Humidity 50%
Rainfall 0.00 in
Snow Depth Not available.
6:43 AM 5:04 PM
Last Quarter, 42% visible
METAR KNJK 201756Z 13003KT 10SM SCT070 BKN100 BKN200 16/06 A2974 RMK AO2 SLP086 T01610056 10161 20128 58012
Pressure 29.79 in
Visibility 10.0 miles
Clouds Scattered Clouds 7000 ft
Mostly Cloudy 10000 ft
Mostly Cloudy 20000 ft
Dew Point 42 °F
Humidity 50%
Rainfall 0.00 in
Snow Depth Not available.
6:43 AM 5:04 PM
Last Quarter, 42% visible
METAR KNJK 201756Z 13003KT 10SM SCT070 BKN100 BKN200 16/06 A2974 RMK AO2 SLP086 T01610056 10161 20128 58012

Get Your Daily Forecast Email!

Thanks for signing up!

Be on the lookout for a verification email in your inbox.

You'll start receiving the daily forecast at 8 AM.

×

10-Day Weather Forecast

Almanac

Astronomy

Jan. 20, 2017 Rise Set
Actual Time
Civil Twilight
Nautical Twilight
Astronomical Twilight
Moon
Length of Visible Light
Length of Day
Tomorrow will be .
, % of the Moon is Illuminated

Today's Extremes

State Highs State Lows

Community

WunderPhotos

Upload Photos

1,962,540 photos uploaded!

WunderBlog® & News

Nearby

Air Quality

  Air Quality AQ Index Pollutant
Not available.

Snow Depth

Station Depth Elevation

Earthquake Activity

City Distance Mag. Time & Date
Minimum magnitude displayed is 2.5.

Coastal Water Temperatures

Place Temperature

Stations

Nearby Weather Stations

Station Location Temp. Windchill Dew Point Humidity Wind Precip. Elev Updated Type
                   

Watches & Warnings

There are currently no watches in effect.